createdAt,value
2022-11-28T00:01:41.112Z,5.80
2022-11-28T00:04:11.454Z,5.80
2022-11-28T00:06:45.322Z,5.80
2022-11-28T00:09:15.808Z,5.80
2022-11-28T00:11:45.979Z,5.80
2022-11-28T00:14:14.800Z,5.80
2022-11-28T00:16:43.198Z,5.90
2022-11-28T00:19:14.559Z,5.90
2022-11-28T00:21:43.230Z,5.90
2022-11-28T00:24:11.491Z,5.90
2022-11-28T00:26:42.202Z,5.80
2022-11-28T00:29:12.083Z,5.80
2022-11-28T00:31:43.787Z,5.80
2022-11-28T00:34:15.853Z,5.90
2022-11-28T00:36:46.298Z,5.90
2022-11-28T00:39:15.568Z,5.90
2022-11-28T00:41:45.211Z,5.90
2022-11-28T00:44:14.121Z,5.90
2022-11-28T00:46:42.811Z,5.80
2022-11-28T00:49:11.005Z,5.80
2022-11-28T00:51:40.551Z,5.80
2022-11-28T00:54:09.024Z,5.80
2022-11-28T00:56:39.568Z,5.80
2022-11-28T00:59:08.182Z,5.80
2022-11-28T01:01:39.206Z,5.80
2022-11-28T01:04:10.868Z,5.70
2022-11-28T01:06:43.120Z,5.70
2022-11-28T01:09:14.190Z,5.80
2022-11-28T01:11:44.209Z,5.80
2022-11-28T01:14:13.919Z,5.70
2022-11-28T01:16:42.224Z,5.70
2022-11-28T01:19:10.459Z,5.70
2022-11-28T01:21:40.094Z,5.70
2022-11-28T01:24:08.899Z,5.70
2022-11-28T01:26:39.561Z,5.70
2022-11-28T01:29:08.416Z,5.80
2022-11-28T01:31:36.956Z,5.70
2022-11-28T01:34:05.383Z,5.70
2022-11-28T01:36:33.572Z,5.80
2022-11-28T01:39:03.066Z,5.70
2022-11-28T01:41:31.274Z,5.70
2022-11-28T01:44:03.392Z,5.70
2022-11-28T01:46:32.660Z,5.60
2022-11-28T01:49:08.887Z,5.70
2022-11-28T01:51:38.155Z,5.60
2022-11-28T01:54:08.086Z,5.60
2022-11-28T01:56:44.707Z,5.60
2022-11-28T01:59:16.202Z,5.50
2022-11-28T02:01:45.362Z,5.50
2022-11-28T02:04:14.725Z,5.40
2022-11-28T02:06:44.049Z,5.50
2022-11-28T02:09:16.980Z,5.50
2022-11-28T02:12:10.500Z,5.60
2022-11-28T02:15:14.711Z,5.60
2022-11-28T02:17:59.584Z,5.60
2022-11-28T02:21:03.908Z,5.60
2022-11-28T02:23:57.990Z,5.60
2022-11-28T02:26:58.047Z,5.60
2022-11-28T02:30:02.413Z,5.60
2022-11-28T02:33:12.669Z,5.60
2022-11-28T02:35:54.077Z,5.50
2022-11-28T02:38:32.494Z,5.50
2022-11-28T02:41:07.960Z,5.50
2022-11-28T02:43:45.698Z,5.40
2022-11-28T02:46:18.479Z,5.40
2022-11-28T02:48:54.359Z,5.40
2022-11-28T02:51:30.266Z,5.40
2022-11-28T02:54:00.150Z,5.40
2022-11-28T02:56:28.511Z,5.40
2022-11-28T02:58:56.726Z,5.40
2022-11-28T03:01:31.100Z,5.40
2022-11-28T03:04:25.205Z,5.30
2022-11-28T03:07:04.614Z,5.30
2022-11-28T03:09:56.145Z,5.30
2022-11-28T03:12:34.150Z,5.20
2022-11-28T03:15:06.316Z,5.30
2022-11-28T03:17:44.274Z,5.30
2022-11-28T03:20:24.805Z,5.20
2022-11-28T03:23:09.519Z,5.20
2022-11-28T03:25:47.790Z,5.30
2022-11-28T03:28:25.300Z,5.30
2022-11-28T03:30:58.405Z,5.40
2022-11-28T03:33:31.455Z,5.40
2022-11-28T03:36:06.967Z,5.40
2022-11-28T03:38:39.859Z,5.30
2022-11-28T03:41:14.811Z,5.30
2022-11-28T03:43:47.020Z,5.20
2022-11-28T03:46:18.298Z,5.30
2022-11-28T03:48:50.887Z,5.30
2022-11-28T03:51:25.155Z,5.30
2022-11-28T03:54:00.925Z,5.40
2022-11-28T03:56:40.697Z,5.40
2022-11-28T03:59:14.692Z,5.40
2022-11-28T04:01:52.466Z,5.50
2022-11-28T04:04:29.215Z,5.50
2022-11-28T04:07:05.968Z,5.50
2022-11-28T04:09:43.936Z,5.50
2022-11-28T04:12:22.670Z,5.60
2022-11-28T04:14:56.858Z,5.60
2022-11-28T04:17:31.181Z,5.60
2022-11-28T04:20:06.259Z,5.60
2022-11-28T04:22:42.357Z,5.50
2022-11-28T04:25:15.581Z,5.50
2022-11-28T04:27:48.783Z,5.50
2022-11-28T04:30:17.491Z,5.50
2022-11-28T04:32:52.356Z,5.40
2022-11-28T04:35:26.567Z,5.50
2022-11-28T04:37:56.522Z,5.40
2022-11-28T04:40:26.886Z,5.40
2022-11-28T04:43:00.504Z,5.40
2022-11-28T04:45:34.417Z,5.40
2022-11-28T04:48:03.166Z,5.30
2022-11-28T04:50:39.262Z,5.20
2022-11-28T04:53:14.278Z,5.20
2022-11-28T04:55:48.045Z,5.20
2022-11-28T04:58:20.659Z,5.20
2022-11-28T05:00:51.856Z,5.20
2022-11-28T05:03:20.818Z,5.20
2022-11-28T05:05:51.934Z,5.20
2022-11-28T05:08:22.475Z,5.20
2022-11-28T05:10:51.024Z,5.20
2022-11-28T05:13:19.213Z,5.20
2022-11-28T05:15:47.379Z,5.20
2022-11-28T05:18:15.478Z,5.20
2022-11-28T05:20:45.495Z,5.10
2022-11-28T05:23:13.602Z,5.10
2022-11-28T05:25:43.154Z,5.10
2022-11-28T05:28:12.013Z,5.00
2022-11-28T05:30:40.131Z,5.00
2022-11-28T05:33:08.245Z,5.00
2022-11-28T05:35:36.444Z,5.00
2022-11-28T05:38:07.148Z,5.00
2022-11-28T05:40:43.208Z,5.00
2022-11-28T05:43:12.900Z,5.00
2022-11-28T05:45:41.776Z,5.00
2022-11-28T05:48:10.032Z,4.90
2022-11-28T05:50:40.652Z,5.00
2022-11-28T05:53:09.477Z,4.90
2022-11-28T05:55:39.564Z,4.90
2022-11-28T05:58:07.857Z,4.90
2022-11-28T06:00:37.530Z,4.90
2022-11-28T06:03:06.351Z,4.90
2022-11-28T06:05:42.662Z,5.00
2022-11-28T06:08:13.779Z,4.90
2022-11-28T06:10:42.142Z,4.90
2022-11-28T06:13:10.326Z,4.90
2022-11-28T06:15:45.072Z,4.90
2022-11-28T06:18:13.389Z,4.90
2022-11-28T06:20:41.547Z,4.90
2022-11-28T06:23:09.786Z,4.90
2022-11-28T06:25:38.371Z,4.90
2022-11-28T06:28:06.482Z,4.90
2022-11-28T06:30:34.715Z,4.90
2022-11-28T06:33:04.239Z,4.90
2022-11-28T06:35:32.362Z,4.90
2022-11-28T06:38:00.556Z,4.90
2022-11-28T06:40:28.879Z,4.90
2022-11-28T06:42:56.992Z,4.90
2022-11-28T06:45:25.218Z,4.90
2022-11-28T06:47:53.358Z,4.90
2022-11-28T06:50:22.881Z,4.90
2022-11-28T06:52:51.186Z,4.80
2022-11-28T06:55:19.408Z,4.80
2022-11-28T06:57:47.553Z,4.90
2022-11-28T07:00:17.512Z,4.90
2022-11-28T07:02:45.714Z,4.90
2022-11-28T07:05:16.449Z,4.90
2022-11-28T07:07:54.298Z,4.90
2022-11-28T07:10:23.045Z,4.90
2022-11-28T07:12:55.510Z,4.90
2022-11-28T07:15:24.008Z,4.90
2022-11-28T07:17:52.209Z,4.90
2022-11-28T07:20:21.217Z,5.00
2022-11-28T07:22:50.719Z,5.00
2022-11-28T07:25:19.164Z,4.90
2022-11-28T07:27:47.328Z,4.90
2022-11-28T07:30:15.946Z,4.90
2022-11-28T07:32:44.231Z,4.90
2022-11-28T07:35:12.532Z,4.90
2022-11-28T07:37:43.463Z,4.90
2022-11-28T07:40:13.891Z,4.90
2022-11-28T07:42:42.002Z,4.90
2022-11-28T07:45:12.029Z,5.00
2022-11-28T07:47:40.171Z,5.00
2022-11-28T07:50:09.978Z,5.00
2022-11-28T07:52:38.104Z,5.00
2022-11-28T07:55:07.990Z,5.00
2022-11-28T07:57:37.436Z,5.00
2022-11-28T08:00:06.747Z,5.10
2022-11-28T08:02:40.940Z,5.10
2022-11-28T08:05:10.156Z,5.10
2022-11-28T08:07:39.011Z,5.20
2022-11-28T08:10:09.351Z,5.20
2022-11-28T08:12:38.884Z,5.20
2022-11-28T08:15:08.032Z,5.20
2022-11-28T08:17:36.195Z,5.30
2022-11-28T08:20:05.033Z,5.30
2022-11-28T08:22:33.251Z,5.30
2022-11-28T08:25:01.452Z,5.40
2022-11-28T08:27:29.604Z,5.40
2022-11-28T08:29:59.163Z,5.40
2022-11-28T08:32:27.309Z,5.50
2022-11-28T08:34:55.436Z,5.50
2022-11-28T08:37:23.570Z,5.60
2022-11-28T08:39:51.677Z,5.60
2022-11-28T08:42:19.820Z,5.70
2022-11-28T08:44:48.090Z,5.70
2022-11-28T08:47:17.646Z,5.80
2022-11-28T08:49:46.098Z,5.90
2022-11-28T08:52:14.447Z,6.00
2022-11-28T08:54:42.880Z,6.00
2022-11-28T08:57:11.216Z,6.10
2022-11-28T08:59:39.386Z,6.10
2022-11-28T09:02:07.870Z,6.20
2022-11-28T09:04:37.569Z,6.20
2022-11-28T09:07:06.003Z,6.20
2022-11-28T09:09:34.172Z,6.30
2022-11-28T09:12:02.293Z,6.30
2022-11-28T09:14:30.486Z,6.40
2022-11-28T09:16:58.725Z,6.50
2022-11-28T09:19:27.143Z,6.50
2022-11-28T09:21:58.000Z,6.60
2022-11-28T09:24:26.417Z,6.60
2022-11-28T09:26:54.741Z,6.60
2022-11-28T09:29:22.863Z,6.60
2022-11-28T09:31:51.046Z,6.60
2022-11-28T09:34:19.236Z,6.60
2022-11-28T09:36:48.338Z,6.70
2022-11-28T09:39:18.037Z,6.70
2022-11-28T09:41:59.659Z,6.70
2022-11-28T09:44:38.065Z,6.70
2022-11-28T09:47:15.343Z,6.80
2022-11-28T09:49:50.240Z,6.80
2022-11-28T09:52:29.489Z,6.80
2022-11-28T09:55:13.955Z,6.80
2022-11-28T09:57:46.777Z,6.90
2022-11-28T10:00:18.793Z,6.90
2022-11-28T10:03:10.542Z,7.00
2022-11-28T10:05:43.450Z,7.10
2022-11-28T10:08:23.837Z,7.20
2022-11-28T10:11:03.452Z,7.20
2022-11-28T10:14:07.233Z,7.30
2022-11-28T10:16:48.308Z,7.40
2022-11-28T10:19:52.386Z,7.50
2022-11-28T10:22:18.713Z,7.60
2022-11-28T10:24:54.717Z,7.60
2022-11-28T10:27:30.849Z,7.70
2022-11-28T10:30:08.026Z,7.80
2022-11-28T10:32:42.101Z,7.90
2022-11-28T10:35:29.698Z,7.90
2022-11-28T10:37:57.986Z,7.90
2022-11-28T10:40:36.921Z,7.90
2022-11-28T10:43:13.657Z,7.90
2022-11-28T10:45:50.777Z,8.00
2022-11-28T10:48:41.350Z,8.00
2022-11-28T10:51:34.995Z,8.10
2022-11-28T10:54:23.536Z,8.20
2022-11-28T10:57:02.970Z,8.30
2022-11-28T10:59:48.621Z,8.30
2022-11-28T11:02:28.594Z,8.40
2022-11-28T11:04:57.016Z,8.50
2022-11-28T11:07:30.148Z,8.50
2022-11-28T11:10:09.204Z,8.50
2022-11-28T11:12:37.439Z,8.50
2022-11-28T11:15:24.797Z,8.60
2022-11-28T11:17:53.458Z,8.60
2022-11-28T11:20:36.849Z,8.60
2022-11-28T11:23:16.743Z,8.60
2022-11-28T11:25:53.686Z,8.70
2022-11-28T11:28:39.155Z,8.80
2022-11-28T11:31:20.844Z,8.90
2022-11-28T11:33:53.095Z,9.00
2022-11-28T11:36:28.290Z,9.10
2022-11-28T11:39:23.386Z,9.20
2022-11-28T11:41:54.290Z,9.20
2022-11-28T11:44:35.239Z,9.30
2022-11-28T11:47:07.348Z,9.30
2022-11-28T11:49:38.382Z,9.40
2022-11-28T11:52:16.445Z,9.40
2022-11-28T11:54:59.913Z,9.40
2022-11-28T11:57:34.501Z,9.50
2022-11-28T12:00:07.958Z,9.50
2022-11-28T12:02:46.652Z,9.50
2022-11-28T12:05:18.461Z,9.50
2022-11-28T12:07:56.165Z,9.60
2022-11-28T12:10:28.528Z,9.60
2022-11-28T12:12:56.889Z,9.60
2022-11-28T12:15:36.341Z,9.70
2022-11-28T12:18:20.518Z,9.70
2022-11-28T12:21:09.390Z,9.70
2022-11-28T12:24:01.587Z,9.80
2022-11-28T12:26:43.481Z,9.80
2022-11-28T12:29:39.387Z,9.80
2022-11-28T12:32:24.139Z,9.90
2022-11-28T12:35:14.500Z,9.90
2022-11-28T12:38:11.136Z,9.80
2022-11-28T12:40:51.647Z,9.90
2022-11-28T12:43:34.844Z,9.90
2022-11-28T12:46:12.334Z,9.90
2022-11-28T12:48:55.059Z,9.90
2022-11-28T12:51:37.275Z,9.90
2022-11-28T12:54:35.083Z,9.90
2022-11-28T12:57:09.910Z,9.90
2022-11-28T12:59:47.715Z,9.80
2022-11-28T13:02:33.466Z,9.80
2022-11-28T13:05:26.746Z,9.80
2022-11-28T13:08:36.035Z,9.90
2022-11-28T13:11:17.646Z,10.00
2022-11-28T13:13:50.716Z,10.10
2022-11-28T13:16:27.377Z,10.10
2022-11-28T13:19:03.834Z,10.10
2022-11-28T13:21:40.840Z,10.10
2022-11-28T13:24:24.696Z,10.10
2022-11-28T13:27:01.539Z,10.10
2022-11-28T13:29:38.738Z,10.10
2022-11-28T13:32:15.932Z,10.10
2022-11-28T13:34:45.262Z,10.10
2022-11-28T13:40:19.976Z,10.00
2022-11-28T13:43:07.050Z,10.00
2022-11-28T13:45:39.195Z,10.00
2022-11-28T13:49:15.463Z,10.10
2022-11-28T13:51:44.622Z,10.00
2022-11-28T13:54:48.350Z,10.00
2022-11-28T13:57:29.649Z,10.00
2022-11-28T14:00:04.582Z,9.90
2022-11-28T14:02:46.519Z,9.90
2022-11-28T14:05:35.401Z,9.90
2022-11-28T14:08:04.739Z,9.90
2022-11-28T14:11:21.460Z,9.80
2022-11-28T14:14:13.222Z,9.80
2022-11-28T14:17:01.194Z,9.60
2022-11-28T14:19:51.208Z,9.70
2022-11-28T14:22:40.006Z,9.60
2022-11-28T14:25:17.845Z,9.70
2022-11-28T14:27:54.674Z,9.60
2022-11-28T14:30:33.549Z,9.60
2022-11-28T14:33:05.972Z,9.50
2022-11-28T14:36:21.971Z,9.50
2022-11-28T14:39:07.229Z,9.50
2022-11-28T14:42:59.495Z,9.40
2022-11-28T14:45:43.928Z,9.40
2022-11-28T14:48:20.442Z,9.40
2022-11-28T14:51:00.802Z,9.40
2022-11-28T14:53:46.293Z,9.40
2022-11-28T14:56:27.904Z,9.40
2022-11-28T14:59:03.355Z,9.30
2022-11-28T15:01:52.939Z,9.30
2022-11-28T15:04:50.747Z,9.30
2022-11-28T15:07:33.131Z,9.30
2022-11-28T15:10:10.290Z,9.30
2022-11-28T15:12:51.898Z,9.30
2022-11-28T15:15:22.622Z,9.30
2022-11-28T15:17:55.719Z,9.20
2022-11-28T15:20:30.255Z,9.10
2022-11-28T15:22:58.563Z,9.10
2022-11-28T15:25:35.249Z,9.10
2022-11-28T15:28:15.527Z,9.10
2022-11-28T15:30:47.066Z,9.00
2022-11-28T15:33:16.767Z,9.00
2022-11-28T15:35:57.885Z,9.00
2022-11-28T15:38:27.586Z,8.90
2022-11-28T15:40:57.671Z,8.80
2022-11-28T15:43:26.630Z,8.80
2022-11-28T15:45:59.562Z,8.80
2022-11-28T15:48:39.471Z,8.80
2022-11-28T15:51:09.524Z,8.80
2022-11-28T15:53:42.610Z,8.80
2022-11-28T15:56:14.582Z,8.90
2022-11-28T15:58:45.321Z,8.90
2022-11-28T16:01:19.532Z,8.90
2022-11-28T16:03:57.677Z,8.90
2022-11-28T16:06:30.245Z,8.90
2022-11-28T16:09:03.866Z,8.90
2022-11-28T16:11:34.581Z,8.90
2022-11-28T16:14:10.046Z,8.90
2022-11-28T16:16:39.878Z,8.90
2022-11-28T16:19:26.620Z,8.90
2022-11-28T16:21:58.648Z,8.90
2022-11-28T16:24:35.436Z,8.90
2022-11-28T16:27:07.653Z,8.90
2022-11-28T16:29:37.848Z,8.80
2022-11-28T16:32:10.527Z,8.70
2022-11-28T16:34:48.910Z,8.70
2022-11-28T16:37:23.874Z,8.70
2022-11-28T16:40:06.023Z,8.70
2022-11-28T16:42:34.986Z,8.70
2022-11-28T16:45:16.701Z,8.70
2022-11-28T16:47:46.358Z,8.60
2022-11-28T16:50:23.735Z,8.70
2022-11-28T16:52:53.709Z,8.60
2022-11-28T16:55:47.716Z,8.60
2022-11-28T16:58:22.734Z,8.50
2022-11-28T17:01:02.138Z,8.50
2022-11-28T17:03:49.412Z,8.40
2022-11-28T17:06:34.018Z,8.40
2022-11-28T17:09:03.031Z,8.40
2022-11-28T17:11:34.684Z,8.40
2022-11-28T17:14:06.239Z,8.40
2022-11-28T17:16:38.394Z,8.30
2022-11-28T17:19:06.986Z,8.30
2022-11-28T17:21:41.996Z,8.40
2022-11-28T17:24:17.848Z,8.40
2022-11-28T17:26:46.088Z,8.40
2022-11-28T17:29:15.941Z,8.30
2022-11-28T17:31:47.034Z,8.30
2022-11-28T17:34:18.508Z,8.30
2022-11-28T17:36:49.065Z,8.30
2022-11-28T17:39:18.949Z,8.40
2022-11-28T17:41:48.194Z,8.30
2022-11-28T17:44:20.648Z,8.40
2022-11-28T17:46:50.298Z,8.40
2022-11-28T17:49:20.267Z,8.40
2022-11-28T17:51:52.489Z,8.40
2022-11-28T17:54:23.320Z,8.40
2022-11-28T17:56:53.635Z,8.30
2022-11-28T17:59:24.760Z,8.40
2022-11-28T18:01:53.039Z,8.30
2022-11-28T18:04:25.769Z,8.30
2022-11-28T18:06:55.856Z,8.20
2022-11-28T18:09:24.112Z,8.20
2022-11-28T18:11:52.676Z,8.20
2022-11-28T18:14:20.992Z,8.20
2022-11-28T18:16:49.417Z,8.10
2022-11-28T18:19:17.657Z,8.10
2022-11-28T18:21:45.896Z,8.00
2022-11-28T18:24:16.963Z,8.00
2022-11-28T18:26:45.673Z,8.00
2022-11-28T18:29:14.199Z,8.00
2022-11-28T18:31:43.985Z,8.00
2022-11-28T18:34:12.308Z,8.00
2022-11-28T18:36:41.587Z,8.00
2022-11-28T18:39:17.003Z,8.00
2022-11-28T18:41:45.991Z,8.00
2022-11-28T18:44:14.189Z,8.00
2022-11-28T18:46:42.458Z,8.00
2022-11-28T18:49:15.081Z,7.90
2022-11-28T18:51:43.782Z,7.80
2022-11-28T18:54:16.252Z,7.80
2022-11-28T18:56:49.661Z,7.80
2022-11-28T18:59:18.494Z,7.80
2022-11-28T19:01:46.677Z,7.80
2022-11-28T19:04:16.690Z,7.80
2022-11-28T19:06:46.112Z,7.80
2022-11-28T19:09:18.642Z,7.80
2022-11-28T19:11:48.439Z,7.80
2022-11-28T19:14:18.336Z,7.70
2022-11-28T19:16:49.232Z,7.70
2022-11-28T19:19:18.441Z,7.80
2022-11-28T19:21:49.571Z,7.80
2022-11-28T19:24:18.685Z,7.80
2022-11-28T19:26:48.493Z,7.80
2022-11-28T19:29:16.775Z,7.90
2022-11-28T19:31:45.024Z,7.90
2022-11-28T19:34:15.744Z,7.80
2022-11-28T19:36:47.851Z,7.80
2022-11-28T19:39:19.020Z,7.80
2022-11-28T19:41:49.225Z,7.80
2022-11-28T19:44:17.868Z,7.80
2022-11-28T19:46:46.155Z,7.80
2022-11-28T19:49:20.074Z,7.80
2022-11-28T19:51:49.946Z,7.80
2022-11-28T19:54:20.522Z,7.80
2022-11-28T19:56:52.168Z,7.80
2022-11-28T19:59:20.365Z,7.70
2022-11-28T20:01:50.362Z,7.70
2022-11-28T20:04:20.161Z,7.60
2022-11-28T20:06:48.514Z,7.70
2022-11-28T20:09:16.805Z,7.70
2022-11-28T20:11:45.684Z,7.70
2022-11-28T20:14:20.742Z,7.70
2022-11-28T20:16:49.375Z,7.70
2022-11-28T20:19:18.268Z,7.70
2022-11-28T20:21:47.096Z,7.70
2022-11-28T20:24:16.693Z,7.70
2022-11-28T20:26:47.234Z,7.70
2022-11-28T20:29:19.367Z,7.70
2022-11-28T20:31:50.568Z,7.70
2022-11-28T20:34:19.734Z,7.70
2022-11-28T20:36:53.660Z,7.60
2022-11-28T20:39:22.363Z,7.50
2022-11-28T20:41:50.617Z,7.50
2022-11-28T20:44:21.893Z,7.60
2022-11-28T20:46:50.375Z,7.60
2022-11-28T20:49:19.006Z,7.60
2022-11-28T20:51:47.370Z,7.60
2022-11-28T20:54:15.691Z,7.60
2022-11-28T20:57:19.823Z,7.50
2022-11-28T20:59:34.744Z,7.50
2022-11-28T21:02:03.366Z,7.40
2022-11-28T21:04:32.573Z,7.40
2022-11-28T21:07:01.014Z,7.50
2022-11-28T21:09:29.265Z,7.50
2022-11-28T21:11:59.169Z,7.50
2022-11-28T21:14:29.476Z,7.50
2022-11-28T21:16:59.952Z,7.60
2022-11-28T21:19:28.480Z,7.60
2022-11-28T21:21:56.628Z,7.60
2022-11-28T21:24:24.833Z,7.60
2022-11-28T21:26:54.659Z,7.70
2022-11-28T21:29:24.492Z,7.70
2022-11-28T21:31:53.133Z,7.70
2022-11-28T21:34:22.950Z,7.70
2022-11-28T21:36:51.317Z,7.80
2022-11-28T21:39:21.904Z,7.80
2022-11-28T21:41:52.086Z,7.80
2022-11-28T21:44:20.543Z,7.80
2022-11-28T21:46:50.354Z,7.80
2022-11-28T21:49:18.890Z,7.80
2022-11-28T21:51:48.478Z,7.80
2022-11-28T21:54:16.865Z,7.80
2022-11-28T21:56:46.636Z,7.80
2022-11-28T21:59:15.066Z,7.70
2022-11-28T22:01:44.247Z,7.80
2022-11-28T22:04:13.039Z,7.80
2022-11-28T22:06:41.492Z,7.90
2022-11-28T22:09:11.041Z,7.90
2022-11-28T22:11:40.930Z,7.90
2022-11-28T22:14:09.637Z,7.90
2022-11-28T22:16:38.765Z,7.90
2022-11-28T22:19:06.992Z,7.90
2022-11-28T22:21:56.364Z,7.90
2022-11-28T22:24:26.992Z,7.90
2022-11-28T22:26:56.548Z,7.90
2022-11-28T22:29:25.682Z,7.90
2022-11-28T22:31:55.129Z,7.90
2022-11-28T22:34:24.513Z,7.90
2022-11-28T22:36:52.927Z,7.90
2022-11-28T22:39:21.955Z,7.90
2022-11-28T22:41:51.911Z,7.80
2022-11-28T22:44:21.592Z,7.70
2022-11-28T22:46:49.844Z,7.70
2022-11-28T22:49:19.304Z,7.70
2022-11-28T22:51:48.249Z,7.70
2022-11-28T22:54:16.423Z,7.70
2022-11-28T22:56:45.213Z,7.80
2022-11-28T22:59:17.313Z,7.80
2022-11-28T23:01:45.555Z,7.80
2022-11-28T23:04:14.033Z,7.90
2022-11-28T23:06:43.337Z,7.90
2022-11-28T23:09:14.913Z,7.90
2022-11-28T23:11:44.390Z,7.90
2022-11-28T23:14:15.746Z,7.90
2022-11-28T23:16:45.830Z,8.00
2022-11-28T23:19:17.395Z,8.00
2022-11-28T23:21:47.890Z,8.00
2022-11-28T23:24:18.909Z,8.00
2022-11-28T23:26:48.387Z,8.00
2022-11-28T23:29:18.852Z,8.00
2022-11-28T23:31:48.360Z,8.00
2022-11-28T23:34:17.466Z,8.00
2022-11-28T23:36:47.760Z,8.00
2022-11-28T23:39:18.548Z,8.00
2022-11-28T23:41:47.550Z,7.90
2022-11-28T23:44:19.496Z,7.90
2022-11-28T23:46:49.076Z,7.90
2022-11-28T23:49:17.922Z,7.80
2022-11-28T23:51:46.257Z,7.90
2022-11-28T23:54:14.680Z,7.90
2022-11-28T23:56:44.126Z,7.90
2022-11-28T23:59:13.438Z,7.90
